Terminal Aerodrome Forecast
Issued by NWS

Home | Current Version | Previous Version | Text Only | Print | Product List | Glossary On
Versions: 1 2 3 4 5 6 7 8 9 10 11 12 13 14 15 16 17
000
FTUS43 KDMX 272346
TAFFOD
TAF
KFOD 272346Z 2800/2824 VRB04KT P6SM SCT040 BKN120
     FM280300 14005KT P6SM SHRA VCTS BKN050CB
     FM281000 VRB03KT 6SM SHRA BR VCTS BKN040CB
     FM282000 20010KT P6SM SHRA VCTS BKN060CB=

USA.gov is the U.S. government's official web portal to all federal, state and local government web resources and services.